createdAt,value
2018-11-12T00:00:36.840Z,71.80
2018-11-12T00:03:05.628Z,71.80
2018-11-12T00:05:34.108Z,71.80
2018-11-12T00:08:02.787Z,71.80
2018-11-12T00:10:31.484Z,71.80
2018-11-12T00:12:59.963Z,71.80
2018-11-12T00:15:28.430Z,71.90
2018-11-12T00:17:57.128Z,71.80
2018-11-12T00:20:25.788Z,71.90
2018-11-12T00:22:54.497Z,71.90
2018-11-12T00:25:23.186Z,71.80
2018-11-12T00:27:51.872Z,71.80
2018-11-12T00:30:21.367Z,71.90
2018-11-12T00:32:50.073Z,71.80
2018-11-12T00:35:18.534Z,71.80
2018-11-12T00:37:47.011Z,71.80
2018-11-12T00:40:17.011Z,71.70
2018-11-12T00:42:45.896Z,71.90
2018-11-12T00:45:14.775Z,71.90
2018-11-12T00:47:43.884Z,71.80
2018-11-12T00:50:13.591Z,71.80
2018-11-12T00:52:41.986Z,71.90
2018-11-12T00:55:12.386Z,71.80
2018-11-12T00:57:41.484Z,71.90
2018-11-12T01:00:13.238Z,71.80
2018-11-12T01:02:44.493Z,71.80
2018-11-12T01:05:13.339Z,71.80
2018-11-12T01:07:41.683Z,71.80
2018-11-12T01:10:12.072Z,71.80
2018-11-12T01:12:40.961Z,71.90
2018-11-12T01:15:11.895Z,71.80
2018-11-12T01:17:40.412Z,71.80
2018-11-12T01:20:10.744Z,71.90
2018-11-12T01:22:39.312Z,71.90
2018-11-12T01:25:09.092Z,71.80
2018-11-12T01:27:37.787Z,71.90
2018-11-12T01:30:08.367Z,71.80
2018-11-12T01:32:36.897Z,71.90
2018-11-12T01:35:06.722Z,71.90
2018-11-12T01:37:35.198Z,71.90
2018-11-12T01:40:03.769Z,72.00
2018-11-12T01:42:32.346Z,71.80
2018-11-12T01:45:00.735Z,71.90
2018-11-12T01:47:29.441Z,71.90
2018-11-12T01:49:58.113Z,71.80
2018-11-12T01:52:26.806Z,71.80
2018-11-12T01:54:55.275Z,71.80
2018-11-12T01:57:23.761Z,71.90
2018-11-12T01:59:52.236Z,71.90
2018-11-12T02:02:20.721Z,71.80
2018-11-12T02:04:49.451Z,71.90
2018-11-12T02:07:18.673Z,71.90
2018-11-12T02:09:47.208Z,71.90
2018-11-12T02:12:15.890Z,71.90
2018-11-12T02:14:44.697Z,72.00
2018-11-12T02:17:13.256Z,72.00
2018-11-12T02:19:41.927Z,71.90
2018-11-12T02:22:10.607Z,71.90
2018-11-12T02:24:39.083Z,71.80
2018-11-12T02:27:07.594Z,71.80
2018-11-12T02:29:36.250Z,71.80
2018-11-12T02:32:04.736Z,71.90
2018-11-12T02:34:33.106Z,71.90
2018-11-12T02:37:01.492Z,72.00
2018-11-12T02:39:33.458Z,72.00
2018-11-12T02:42:02.125Z,72.00
2018-11-12T02:44:30.815Z,72.00
2018-11-12T02:46:59.554Z,71.90
2018-11-12T02:49:28.174Z,72.10
2018-11-12T02:51:56.670Z,72.10
2018-11-12T02:54:25.144Z,72.00
2018-11-12T02:56:53.828Z,72.00
2018-11-12T02:59:22.508Z,72.10
2018-11-12T03:01:51.202Z,72.10
2018-11-12T03:04:19.872Z,72.10
2018-11-12T03:06:48.575Z,72.10
2018-11-12T03:09:17.237Z,72.10
2018-11-12T03:11:45.925Z,72.00
2018-11-12T03:14:14.268Z,72.20
2018-11-12T03:16:42.895Z,72.10
2018-11-12T03:19:11.592Z,72.10
2018-11-12T03:21:40.259Z,72.10
2018-11-12T03:24:08.949Z,72.10
2018-11-12T03:26:37.639Z,72.00
2018-11-12T03:29:06.309Z,72.10
2018-11-12T03:31:35.004Z,72.20
2018-11-12T03:34:03.685Z,72.20
2018-11-12T03:36:32.384Z,72.20
2018-11-12T03:39:01.062Z,72.20
2018-11-12T03:41:29.737Z,72.20
2018-11-12T03:43:58.407Z,72.10
2018-11-12T03:46:27.110Z,72.20
2018-11-12T03:48:55.784Z,72.30
2018-11-12T03:51:24.124Z,72.20
2018-11-12T03:53:52.463Z,72.20
2018-11-12T03:56:20.999Z,72.30
2018-11-12T03:58:49.704Z,72.20
2018-11-12T04:01:18.376Z,72.20
2018-11-12T04:03:47.079Z,72.20
2018-11-12T04:06:15.749Z,72.30
2018-11-12T04:08:44.437Z,72.30
2018-11-12T04:11:12.975Z,72.20
2018-11-12T04:13:41.398Z,72.30
2018-11-12T04:16:09.719Z,72.30
2018-11-12T04:18:38.328Z,72.30
2018-11-12T04:21:07.027Z,72.30
2018-11-12T04:23:35.751Z,72.40
2018-11-12T04:26:04.399Z,72.40
2018-11-12T04:28:33.379Z,72.30
2018-11-12T04:31:01.783Z,72.30
2018-11-12T04:33:30.455Z,72.30
2018-11-12T04:35:59.144Z,72.30
2018-11-12T04:38:27.481Z,72.30
2018-11-12T04:40:56.115Z,72.30
2018-11-12T04:43:24.810Z,72.30
2018-11-12T04:45:53.168Z,72.30
2018-11-12T04:48:21.779Z,72.30
2018-11-12T04:50:50.244Z,72.40
2018-11-12T04:53:18.715Z,72.40
2018-11-12T04:55:47.197Z,72.50
2018-11-12T04:58:15.680Z,72.50
2018-11-12T05:00:44.158Z,72.40
2018-11-12T05:03:12.626Z,72.50
2018-11-12T05:05:41.312Z,72.50
2018-11-12T05:08:10.000Z,72.40
2018-11-12T05:10:38.702Z,72.40
2018-11-12T05:13:07.380Z,72.50
2018-11-12T05:15:36.058Z,72.50
2018-11-12T05:18:05.043Z,72.50
2018-11-12T05:20:33.426Z,72.50
2018-11-12T05:23:02.096Z,72.50
2018-11-12T05:25:30.464Z,72.50
2018-11-12T05:27:58.869Z,72.50
2018-11-12T05:30:29.495Z,72.50
2018-11-12T05:32:58.588Z,72.50
2018-11-12T05:35:28.487Z,72.50
2018-11-12T05:37:57.191Z,72.50
2018-11-12T05:40:27.111Z,72.60
2018-11-12T05:42:55.694Z,72.60
2018-11-12T05:45:26.103Z,72.60
2018-11-12T05:47:54.715Z,72.60
2018-11-12T05:50:25.495Z,72.60
2018-11-12T05:52:55.431Z,72.70
2018-11-12T05:55:25.369Z,72.60
2018-11-12T05:57:53.945Z,72.60
2018-11-12T06:00:28.075Z,72.70
2018-11-12T06:02:56.615Z,72.70
2018-11-12T06:05:24.959Z,72.70
2018-11-12T06:07:53.583Z,72.70
2018-11-12T06:10:23.483Z,72.60
2018-11-12T06:12:52.476Z,72.70
2018-11-12T06:15:20.887Z,72.70
2018-11-12T06:17:50.863Z,72.70
2018-11-12T06:20:21.190Z,72.80
2018-11-12T06:22:49.686Z,72.70
2018-11-12T06:25:19.577Z,72.80
2018-11-12T06:27:48.275Z,72.80
2018-11-12T06:30:18.784Z,72.80
2018-11-12T06:32:47.452Z,72.80
2018-11-12T06:35:16.568Z,72.80
2018-11-12T06:37:46.128Z,72.80
2018-11-12T06:40:15.986Z,72.90
2018-11-12T06:42:44.680Z,72.90
2018-11-12T06:45:15.625Z,72.90
2018-11-12T06:47:44.904Z,72.90
2018-11-12T06:50:14.822Z,72.90
2018-11-12T06:52:43.492Z,72.90
2018-11-12T06:55:12.820Z,72.90
2018-11-12T06:57:41.689Z,72.90
2018-11-12T07:00:14.683Z,72.90
2018-11-12T07:02:43.040Z,73.00
2018-11-12T07:05:12.257Z,72.90
2018-11-12T07:07:40.724Z,73.00
2018-11-12T07:10:11.495Z,72.90
2018-11-12T07:12:40.806Z,73.00
2018-11-12T07:15:11.078Z,73.00
2018-11-12T07:17:39.747Z,73.00
2018-11-12T07:20:13.784Z,73.00
2018-11-12T07:22:42.427Z,73.00
2018-11-12T07:25:12.271Z,73.00
2018-11-12T07:27:40.577Z,73.00
2018-11-12T07:30:11.385Z,73.00
2018-11-12T07:32:39.986Z,73.00
2018-11-12T07:35:10.383Z,73.10
2018-11-12T07:37:40.103Z,73.10
2018-11-12T07:40:09.498Z,73.10
2018-11-12T07:42:38.518Z,73.00
2018-11-12T07:45:08.429Z,73.20
2018-11-12T07:47:37.074Z,73.20
2018-11-12T07:50:08.054Z,73.10
2018-11-12T07:52:36.703Z,73.10
2018-11-12T07:55:06.443Z,73.00
2018-11-12T07:57:34.820Z,73.10
2018-11-12T08:00:03.457Z,73.10
2018-11-12T08:02:31.980Z,73.10
2018-11-12T08:05:00.689Z,73.30
2018-11-12T08:07:29.337Z,73.20
2018-11-12T08:09:58.057Z,73.10
2018-11-12T08:12:26.719Z,73.10
2018-11-12T08:14:55.361Z,73.10
2018-11-12T08:17:24.117Z,73.20
2018-11-12T08:19:52.448Z,73.20
2018-11-12T08:22:21.053Z,73.20
2018-11-12T08:24:49.567Z,73.10
2018-11-12T08:27:18.063Z,73.20
2018-11-12T08:29:46.817Z,73.10
2018-11-12T08:32:15.366Z,73.10
2018-11-12T08:34:44.073Z,73.20
2018-11-12T08:37:12.740Z,73.20
2018-11-12T08:39:41.635Z,73.20
2018-11-12T08:42:10.600Z,73.20
2018-11-12T08:44:39.009Z,73.30
2018-11-12T08:47:07.485Z,73.30
2018-11-12T08:49:36.275Z,73.40
2018-11-12T08:52:04.899Z,73.30
2018-11-12T08:54:33.539Z,73.30
2018-11-12T08:57:02.214Z,73.30
2018-11-12T08:59:33.797Z,73.40
2018-11-12T09:02:02.266Z,73.40
2018-11-12T09:04:30.616Z,73.40
2018-11-12T09:06:59.046Z,73.40
2018-11-12T09:09:27.704Z,73.40
2018-11-12T09:11:56.388Z,73.40
2018-11-12T09:14:25.052Z,73.40
2018-11-12T09:16:53.748Z,73.40
2018-11-12T09:19:22.424Z,73.40
2018-11-12T09:21:50.897Z,73.40
2018-11-12T09:24:19.410Z,73.40
2018-11-12T09:26:48.083Z,73.40
2018-11-12T09:29:16.792Z,73.50
2018-11-12T09:31:45.236Z,73.40
2018-11-12T09:34:13.585Z,73.50
2018-11-12T09:36:41.996Z,73.50
2018-11-12T09:39:11.363Z,73.50
2018-11-12T09:41:39.892Z,73.60
2018-11-12T09:44:08.457Z,73.60
2018-11-12T09:46:36.929Z,73.60
2018-11-12T09:49:06.189Z,73.60
2018-11-12T09:51:34.486Z,73.60
2018-11-12T09:54:03.215Z,73.60
2018-11-12T09:56:31.886Z,73.60
2018-11-12T09:59:00.541Z,73.60
2018-11-12T10:01:29.566Z,73.60
2018-11-12T10:03:58.744Z,73.60
2018-11-12T10:06:27.601Z,73.60
2018-11-12T10:08:56.208Z,73.60
2018-11-12T10:11:26.052Z,73.70
2018-11-12T10:13:55.252Z,73.60
2018-11-12T10:16:22.894Z,73.60
2018-11-12T10:18:48.816Z,73.70
2018-11-12T10:21:17.131Z,73.60
2018-11-12T10:23:45.758Z,73.50
2018-11-12T10:26:14.435Z,73.50
2018-11-12T10:28:43.119Z,73.50
2018-11-12T10:31:11.848Z,73.50
2018-11-12T10:33:40.491Z,73.50
2018-11-12T10:36:09.186Z,73.60
2018-11-12T10:38:37.867Z,73.60
2018-11-12T10:41:06.419Z,73.50
2018-11-12T10:43:34.724Z,73.50
2018-11-12T10:46:03.082Z,73.50
2018-11-12T10:48:31.594Z,73.50
2018-11-12T10:51:05.032Z,73.50
2018-11-12T10:53:28.744Z,73.50
2018-11-12T10:55:57.554Z,73.50
2018-11-12T10:58:26.034Z,73.60
2018-11-12T11:00:59.655Z,73.60
2018-11-12T11:03:37.641Z,73.60
2018-11-12T11:06:07.066Z,73.60
2018-11-12T11:08:35.411Z,73.70
2018-11-12T11:11:03.863Z,73.70
2018-11-12T11:13:32.184Z,73.70
2018-11-12T11:16:00.821Z,73.70
2018-11-12T11:18:30.041Z,73.80
2018-11-12T11:20:58.611Z,73.80
2018-11-12T11:23:27.275Z,73.90
2018-11-12T11:25:55.968Z,73.90
2018-11-12T11:28:24.660Z,73.80
2018-11-12T11:30:53.386Z,73.80
2018-11-12T11:33:22.176Z,73.90
2018-11-12T11:35:50.701Z,74.00
2018-11-12T11:38:19.067Z,74.00
2018-11-12T11:40:47.754Z,74.10
2018-11-12T11:43:16.359Z,74.10
2018-11-12T11:45:45.023Z,73.90
2018-11-12T11:48:13.753Z,74.00
2018-11-12T11:50:42.227Z,73.90
2018-11-12T11:53:10.665Z,74.00
2018-11-12T11:55:39.004Z,74.00
2018-11-12T11:58:07.636Z,74.00
2018-11-12T12:00:36.341Z,74.10
2018-11-12T12:03:04.847Z,74.40
2018-11-12T12:05:33.280Z,74.20
2018-11-12T12:08:01.745Z,74.10
2018-11-12T12:10:30.241Z,74.30
2018-11-12T12:12:58.918Z,74.50
2018-11-12T12:15:27.604Z,74.50
2018-11-12T12:17:56.277Z,74.40
2018-11-12T12:20:26.097Z,74.50
2018-11-12T12:22:54.988Z,74.50
2018-11-12T12:25:23.393Z,74.50
2018-11-12T12:27:51.859Z,74.50
2018-11-12T12:30:22.084Z,74.70
2018-11-12T12:32:51.382Z,74.60
2018-11-12T12:35:19.976Z,74.80
2018-11-12T12:37:48.955Z,74.80
2018-11-12T12:40:18.468Z,74.90
2018-11-12T12:42:47.267Z,75.00
2018-11-12T12:45:17.889Z,74.80
2018-11-12T12:47:46.749Z,74.90
2018-11-12T12:50:16.256Z,74.90
2018-11-12T12:52:44.638Z,75.00
2018-11-12T12:55:14.271Z,75.00
2018-11-12T12:57:43.543Z,75.10
2018-11-12T13:00:15.923Z,75.00
2018-11-12T13:02:44.509Z,75.10
2018-11-12T13:05:13.187Z,75.30
2018-11-12T13:07:42.179Z,75.40
2018-11-12T13:10:12.320Z,75.50
2018-11-12T13:12:40.893Z,75.40
2018-11-12T13:15:11.325Z,75.40
2018-11-12T13:17:39.933Z,75.40
2018-11-12T13:20:10.045Z,75.60
2018-11-12T13:22:38.464Z,75.40
2018-11-12T13:25:08.076Z,75.40
2018-11-12T13:27:36.967Z,75.50
2018-11-12T13:30:09.189Z,75.50
2018-11-12T13:32:38.176Z,75.60
2018-11-12T13:35:07.833Z,76.10
2018-11-12T13:37:36.608Z,76.00
2018-11-12T13:40:07.145Z,75.80
2018-11-12T13:42:35.552Z,75.80
2018-11-12T13:45:04.056Z,75.70
2018-11-12T13:47:32.723Z,75.80
2018-11-12T13:50:01.401Z,76.20
2018-11-12T13:52:30.090Z,76.10
2018-11-12T13:54:58.764Z,75.80
2018-11-12T13:57:27.277Z,76.10
2018-11-12T13:59:55.633Z,76.10
2018-11-12T14:02:23.984Z,76.30
2018-11-12T14:04:52.671Z,75.90
2018-11-12T14:07:21.359Z,76.00
2018-11-12T14:09:50.583Z,76.20
2018-11-12T14:12:19.137Z,76.20
2018-11-12T14:14:47.827Z,76.00
2018-11-12T14:17:16.513Z,76.30
2018-11-12T14:19:45.181Z,76.10
2018-11-12T14:22:13.880Z,76.00
2018-11-12T14:24:42.583Z,76.50
2018-11-12T14:27:10.917Z,76.60
2018-11-12T14:29:39.511Z,76.50
2018-11-12T14:32:07.996Z,76.20
2018-11-12T14:34:36.544Z,76.50
2018-11-12T14:37:05.489Z,76.40
2018-11-12T14:39:34.417Z,76.40
2018-11-12T14:42:02.746Z,76.50
2018-11-12T14:44:31.221Z,76.50
2018-11-12T14:46:59.688Z,76.40
2018-11-12T14:49:28.184Z,76.50
2018-11-12T14:51:56.523Z,76.60
2018-11-12T14:54:25.125Z,76.40
2018-11-12T14:56:53.825Z,76.20
2018-11-12T14:59:22.552Z,76.20
2018-11-12T15:01:50.991Z,76.40
2018-11-12T15:04:19.486Z,76.30
2018-11-12T15:06:49.582Z,76.40
2018-11-12T15:09:18.063Z,76.30
2018-11-12T15:11:46.748Z,76.30
2018-11-12T15:14:15.447Z,76.50
2018-11-12T15:16:44.121Z,76.50
2018-11-12T15:19:12.813Z,76.40
2018-11-12T15:21:41.484Z,76.20
2018-11-12T15:24:10.175Z,76.30
2018-11-12T15:26:38.839Z,76.60
2018-11-12T15:29:07.627Z,76.30
2018-11-12T15:31:39.919Z,76.40
2018-11-12T15:34:08.593Z,76.60
2018-11-12T15:36:37.177Z,76.40
2018-11-12T15:39:08.518Z,76.60
2018-11-12T15:41:37.391Z,76.30
2018-11-12T15:44:06.560Z,76.40
2018-11-12T15:46:35.784Z,76.40
2018-11-12T15:49:05.081Z,76.40
2018-11-12T15:51:33.477Z,76.50
2018-11-12T15:54:02.259Z,76.50
2018-11-12T15:56:30.936Z,76.50
2018-11-12T15:59:00.156Z,76.50
2018-11-12T16:01:29.132Z,76.50
2018-11-12T16:03:57.771Z,76.30
2018-11-12T16:06:26.560Z,76.30
2018-11-12T16:08:54.900Z,76.40
2018-11-12T16:11:23.276Z,76.50
2018-11-12T16:13:52.064Z,76.40
2018-11-12T16:16:20.749Z,76.50
2018-11-12T16:18:49.215Z,76.40
2018-11-12T16:21:17.692Z,76.40
2018-11-12T16:23:46.365Z,76.50
2018-11-12T16:26:15.096Z,76.30
2018-11-12T16:28:43.749Z,76.30
2018-11-12T16:31:12.219Z,76.30
2018-11-12T16:33:40.699Z,76.40
2018-11-12T16:36:09.409Z,76.40
2018-11-12T16:38:38.063Z,76.40
2018-11-12T16:41:06.399Z,76.30
2018-11-12T16:43:35.038Z,76.40
2018-11-12T16:46:05.722Z,76.30
2018-11-12T16:48:33.906Z,76.40
2018-11-12T16:51:02.352Z,76.30
2018-11-12T16:53:31.012Z,76.40
2018-11-12T16:55:59.684Z,76.40
2018-11-12T16:58:28.045Z,76.40
2018-11-12T17:00:56.445Z,76.30
2018-11-12T17:03:24.782Z,76.30
2018-11-12T17:05:53.187Z,76.20
2018-11-12T17:08:21.932Z,76.10
2018-11-12T17:10:50.559Z,76.30
2018-11-12T17:13:19.244Z,76.20
2018-11-12T17:15:47.929Z,76.40
2018-11-12T17:18:17.225Z,76.20
2018-11-12T17:20:45.697Z,76.30
2018-11-12T17:23:14.096Z,76.20
2018-11-12T17:25:42.394Z,76.20
2018-11-12T17:28:10.943Z,76.30
2018-11-12T17:30:39.447Z,76.20
2018-11-12T17:33:07.788Z,76.20
2018-11-12T17:35:36.164Z,76.20
2018-11-12T17:38:05.010Z,76.10
2018-11-12T17:40:33.539Z,76.20
2018-11-12T17:43:02.274Z,76.20
2018-11-12T17:45:30.914Z,76.20
2018-11-12T17:47:59.691Z,76.20
2018-11-12T17:50:28.279Z,76.20
2018-11-12T17:52:56.767Z,76.20
2018-11-12T17:55:25.223Z,76.10
2018-11-12T17:57:53.933Z,76.20
2018-11-12T18:00:32.363Z,76.10
2018-11-12T18:03:00.755Z,76.10
2018-11-12T18:05:29.396Z,76.00
2018-11-12T18:07:58.141Z,76.10
2018-11-12T18:10:26.557Z,76.20
2018-11-12T18:12:55.055Z,76.20
2018-11-12T18:15:24.135Z,76.10
2018-11-12T18:17:52.924Z,76.00
2018-11-12T18:20:23.638Z,76.00
2018-11-12T18:22:53.130Z,76.00
2018-11-12T18:25:21.739Z,76.00
2018-11-12T18:27:50.449Z,75.90
2018-11-12T18:30:20.759Z,76.00
2018-11-12T18:32:50.333Z,76.00
2018-11-12T18:35:18.943Z,75.90
2018-11-12T18:37:47.619Z,76.00
2018-11-12T18:40:17.821Z,76.00
2018-11-12T18:42:46.500Z,75.90
2018-11-12T18:45:16.634Z,75.90
2018-11-12T18:47:45.336Z,76.00
2018-11-12T18:50:16.656Z,76.00
2018-11-12T18:52:45.395Z,76.00
2018-11-12T18:55:13.728Z,75.90
2018-11-12T18:57:44.010Z,75.90
2018-11-12T19:00:13.843Z,75.90
2018-11-12T19:02:42.254Z,75.90
2018-11-12T19:05:16.358Z,75.90
2018-11-12T19:07:47.151Z,75.90
2018-11-12T19:10:17.185Z,75.90
2018-11-12T19:12:46.287Z,75.90
2018-11-12T19:15:17.010Z,75.90
2018-11-12T19:17:46.728Z,75.80
2018-11-12T19:20:16.212Z,75.90
2018-11-12T19:22:44.616Z,75.90
2018-11-12T19:25:13.717Z,75.80
2018-11-12T19:27:42.681Z,75.90
2018-11-12T19:30:21.609Z,75.80
2018-11-12T19:32:50.208Z,75.90
2018-11-12T19:35:20.419Z,75.80
2018-11-12T19:37:48.817Z,75.80
2018-11-12T19:40:19.126Z,75.90
2018-11-12T19:42:48.922Z,75.80
2018-11-12T19:45:17.357Z,75.90
2018-11-12T19:47:46.712Z,75.80
2018-11-12T19:50:17.243Z,75.90
2018-11-12T19:52:46.933Z,75.80
2018-11-12T19:55:15.616Z,75.80
2018-11-12T19:57:44.374Z,75.70
2018-11-12T20:00:15.876Z,75.70
2018-11-12T20:02:45.356Z,75.70
2018-11-12T20:05:13.779Z,75.70
2018-11-12T20:07:43.357Z,75.70
2018-11-12T20:10:13.932Z,75.60
2018-11-12T20:12:42.679Z,75.70
2018-11-12T20:15:12.466Z,75.70
2018-11-12T20:17:41.769Z,75.60
2018-11-12T20:20:15.764Z,75.70
2018-11-12T20:24:08.915Z,75.60
2018-11-12T20:26:37.827Z,75.70
2018-11-12T20:29:06.333Z,75.60
2018-11-12T20:31:34.837Z,75.60
2018-11-12T20:34:03.529Z,75.60
2018-11-12T20:36:32.251Z,75.60
2018-11-12T20:39:00.661Z,75.70
2018-11-12T20:41:29.159Z,75.60
2018-11-12T20:43:57.810Z,75.60
2018-11-12T20:46:26.503Z,75.60
2018-11-12T20:48:55.196Z,75.60
2018-11-12T20:51:23.936Z,75.60
2018-11-12T20:53:52.559Z,75.60
2018-11-12T20:56:21.247Z,75.60
2018-11-12T20:58:49.724Z,75.60
2018-11-12T21:01:18.238Z,75.50
2018-11-12T21:03:46.605Z,75.60
2018-11-12T21:06:15.157Z,75.60
2018-11-12T21:08:43.660Z,75.50
2018-11-12T21:11:12.142Z,75.60
2018-11-12T21:13:40.492Z,75.50
2018-11-12T21:16:09.091Z,75.50
2018-11-12T21:18:37.791Z,75.50
2018-11-12T21:21:06.440Z,75.50
2018-11-12T21:23:35.198Z,75.50
2018-11-12T21:26:03.504Z,75.40
2018-11-12T21:28:32.003Z,75.40
2018-11-12T21:31:00.374Z,75.40
2018-11-12T21:33:28.858Z,75.40
2018-11-12T21:35:57.327Z,75.40
2018-11-12T21:38:26.006Z,75.40
2018-11-12T21:40:54.703Z,75.40
2018-11-12T21:43:23.266Z,75.40
2018-11-12T21:45:51.659Z,75.40
2018-11-12T21:48:20.011Z,75.40
2018-11-12T21:50:48.615Z,75.40
2018-11-12T21:53:17.322Z,75.40
2018-11-12T21:55:45.978Z,75.40
2018-11-12T21:58:14.324Z,75.40
2018-11-12T22:00:43.409Z,75.40
2018-11-12T22:03:12.032Z,75.40
2018-11-12T22:05:40.714Z,75.40
2018-11-12T22:08:09.206Z,75.40
2018-11-12T22:10:37.738Z,75.40
2018-11-12T22:13:06.488Z,75.30
2018-11-12T22:15:35.049Z,75.40
2018-11-12T22:18:03.732Z,75.30
2018-11-12T22:20:32.401Z,75.30
2018-11-12T22:23:01.115Z,75.30
2018-11-12T22:25:29.780Z,75.20
2018-11-12T22:27:58.476Z,75.30
2018-11-12T22:30:27.847Z,75.30
2018-11-12T22:32:56.941Z,75.30
2018-11-12T22:35:25.340Z,75.30
2018-11-12T22:37:54.048Z,75.30
2018-11-12T22:40:23.005Z,75.30
2018-11-12T22:42:52.285Z,75.30
2018-11-12T22:45:23.858Z,75.30
2018-11-12T22:47:53.141Z,75.30
2018-11-12T22:50:21.532Z,75.30
2018-11-12T22:52:49.985Z,75.20
2018-11-12T22:55:19.394Z,75.20
2018-11-12T22:57:47.990Z,75.20
2018-11-12T23:00:23.363Z,75.30
2018-11-12T23:02:52.208Z,75.20
2018-11-12T23:05:21.096Z,75.20
2018-11-12T23:07:50.191Z,75.20
2018-11-12T23:10:19.365Z,75.20
2018-11-12T23:12:47.883Z,75.20
2018-11-12T23:15:17.065Z,75.20
2018-11-12T23:17:45.639Z,75.30
2018-11-12T23:20:18.551Z,75.20
2018-11-12T23:22:47.700Z,75.20
2018-11-12T23:25:16.185Z,75.20
2018-11-12T23:27:45.507Z,75.20
2018-11-12T23:30:15.507Z,75.10
2018-11-12T23:32:43.913Z,75.20
2018-11-12T23:35:14.718Z,75.10
2018-11-12T23:37:43.966Z,75.10
2018-11-12T23:40:12.695Z,75.10
2018-11-12T23:42:41.385Z,75.10
2018-11-12T23:45:09.756Z,75.10
2018-11-12T23:47:38.748Z,75.10
2018-11-12T23:50:12.762Z,75.10
2018-11-12T23:52:41.181Z,75.10
2018-11-12T23:55:10.124Z,75.10
2018-11-12T23:57:38.529Z,75.10
